createdAt,value
2023-04-15T00:01:08.311Z,1.00
2023-04-15T00:03:35.782Z,1.00
2023-04-15T00:06:03.756Z,1.00
2023-04-15T00:08:31.248Z,1.00
2023-04-15T00:11:02.855Z,1.00
2023-04-15T00:13:33.015Z,1.00
2023-04-15T00:16:00.088Z,1.00
2023-04-15T00:18:27.126Z,1.00
2023-04-15T00:20:54.486Z,1.00
2023-04-15T00:23:21.393Z,1.00
2023-04-15T00:25:48.333Z,1.00
2023-04-15T00:28:15.234Z,1.00
2023-04-15T00:30:42.509Z,1.00
2023-04-15T00:33:09.807Z,1.00
2023-04-15T00:35:37.557Z,1.00
2023-04-15T00:38:06.105Z,1.00
2023-04-15T00:40:33.445Z,2.40
2023-04-15T00:43:00.502Z,8.00
2023-04-15T00:45:30.394Z,15.70
2023-04-15T00:47:57.450Z,6.10
2023-04-15T00:50:24.543Z,16.10
2023-04-15T00:52:52.015Z,23.00
2023-04-15T00:55:19.429Z,30.70
2023-04-15T00:57:46.596Z,39.20
2023-04-15T01:00:13.904Z,42.30
2023-04-15T01:02:41.194Z,50.60
2023-04-15T01:05:08.634Z,56.30
2023-04-15T01:07:35.933Z,48.20
2023-04-15T01:10:04.725Z,58.70
2023-04-15T01:12:33.189Z,71.60
2023-04-15T01:15:00.538Z,96.10
2023-04-15T01:17:27.848Z,99.90
2023-04-15T01:19:57.999Z,99.90
2023-04-15T01:22:26.862Z,99.90
2023-04-15T01:25:13.300Z,99.90
2023-04-15T01:27:45.444Z,99.90
2023-04-15T01:30:12.595Z,99.90
2023-04-15T01:32:39.614Z,99.90
2023-04-15T01:35:07.714Z,99.90
2023-04-15T01:37:34.712Z,99.90
2023-04-15T01:40:01.684Z,99.90
2023-04-15T01:42:29.255Z,99.90
2023-04-15T01:44:56.460Z,99.90
2023-04-15T01:47:23.817Z,99.90
2023-04-15T01:49:51.007Z,99.90
2023-04-15T01:52:18.468Z,99.90
2023-04-15T01:54:45.833Z,99.90
2023-04-15T01:57:13.018Z,99.90
2023-04-15T01:59:39.921Z,99.90
2023-04-15T02:02:07.180Z,99.90
2023-04-15T02:04:34.313Z,99.90
2023-04-15T02:07:01.788Z,99.90
2023-04-15T02:09:28.780Z,99.90
2023-04-15T02:11:55.714Z,99.90
2023-04-15T02:14:22.725Z,99.90
2023-04-15T02:16:49.678Z,99.90
2023-04-15T02:19:16.708Z,99.90
2023-04-15T02:21:43.672Z,99.90
2023-04-15T02:24:12.235Z,99.90
2023-04-15T02:26:39.262Z,99.90
2023-04-15T02:29:06.285Z,99.90
2023-04-15T02:31:37.088Z,99.90
2023-04-15T02:34:04.881Z,99.90
2023-04-15T02:36:32.063Z,99.90
2023-04-15T02:38:59.133Z,98.70
2023-04-15T02:41:27.893Z,71.80
2023-04-15T02:43:55.078Z,87.30
2023-04-15T02:46:23.158Z,90.20
2023-04-15T02:48:50.755Z,99.90
2023-04-15T02:51:22.872Z,99.90
2023-04-15T02:53:50.342Z,99.90
2023-04-15T02:56:19.458Z,99.90
2023-04-15T02:58:46.505Z,99.90
2023-04-15T03:01:13.790Z,99.90
2023-04-15T03:03:41.084Z,99.90
2023-04-15T03:06:09.174Z,99.90
2023-04-15T03:08:36.576Z,99.90
2023-04-15T03:11:04.077Z,90.70
2023-04-15T03:13:31.371Z,70.70
2023-04-15T03:15:58.333Z,54.30
2023-04-15T03:18:25.458Z,40.90
2023-04-15T03:20:52.415Z,27.60
2023-04-15T03:23:19.405Z,17.50
2023-04-15T03:25:46.355Z,11.80
2023-04-15T03:28:13.299Z,15.50
2023-04-15T03:30:40.308Z,17.10
2023-04-15T03:33:07.305Z,16.30
2023-04-15T03:35:34.646Z,13.30
2023-04-15T03:38:01.555Z,23.20
2023-04-15T03:40:28.476Z,38.00
2023-04-15T03:42:55.447Z,48.30
2023-04-15T03:45:22.315Z,50.10
2023-04-15T03:47:49.902Z,42.70
2023-04-15T03:50:16.991Z,32.00
2023-04-15T03:52:44.889Z,30.20
2023-04-15T03:55:11.921Z,30.00
2023-04-15T03:57:39.816Z,27.30
2023-04-15T04:00:08.008Z,30.00
2023-04-15T04:02:35.122Z,22.90
2023-04-15T04:05:02.290Z,19.50
2023-04-15T04:07:29.242Z,15.60
2023-04-15T04:09:57.906Z,25.60
2023-04-15T04:12:24.826Z,36.90
2023-04-15T04:14:51.700Z,37.10
2023-04-15T04:17:19.129Z,31.10
2023-04-15T04:19:46.474Z,16.90
2023-04-15T04:22:13.441Z,12.20
2023-04-15T04:24:40.451Z,18.40
2023-04-15T04:27:07.337Z,22.90
2023-04-15T04:29:34.355Z,26.30
2023-04-15T04:32:01.344Z,28.70
2023-04-15T04:34:28.265Z,33.50
2023-04-15T04:36:55.277Z,43.20
2023-04-15T04:39:22.241Z,44.60
2023-04-15T04:41:49.973Z,34.20
2023-04-15T04:44:17.065Z,22.10
2023-04-15T04:46:44.061Z,21.30
2023-04-15T04:49:11.443Z,36.10
2023-04-15T04:51:38.438Z,56.30
2023-04-15T04:54:05.406Z,84.20
2023-04-15T04:56:32.367Z,83.50
2023-04-15T04:58:59.416Z,92.70
2023-04-15T05:01:27.658Z,99.90
2023-04-15T05:03:55.111Z,99.90
2023-04-15T05:06:22.448Z,99.90
2023-04-15T05:08:49.393Z,99.90
2023-04-15T05:11:17.008Z,99.90
2023-04-15T05:13:43.958Z,99.90
2023-04-15T05:16:10.937Z,99.90
2023-04-15T05:18:38.052Z,99.90
2023-04-15T05:21:05.224Z,99.90
2023-04-15T05:23:32.312Z,99.90
2023-04-15T05:25:59.269Z,78.80
2023-04-15T05:28:26.162Z,75.60
2023-04-15T05:30:53.159Z,42.60
2023-04-15T05:33:20.163Z,51.00
2023-04-15T05:35:47.049Z,40.70
2023-04-15T05:38:16.441Z,18.10
2023-04-15T05:40:43.357Z,6.10
2023-04-15T05:43:10.700Z,14.70
2023-04-15T05:45:37.565Z,21.30
2023-04-15T05:48:04.535Z,33.40
2023-04-15T05:50:31.561Z,38.10
2023-04-15T05:52:58.411Z,49.00
2023-04-15T05:55:25.859Z,68.30
2023-04-15T05:57:53.211Z,34.90
2023-04-15T06:00:20.216Z,30.10
2023-04-15T06:02:47.827Z,35.00
2023-04-15T06:05:14.953Z,21.90
2023-04-15T06:07:44.735Z,7.50
2023-04-15T06:10:12.953Z,9.20
2023-04-15T06:12:40.023Z,20.60
2023-04-15T06:15:10.097Z,12.70
2023-04-15T06:17:37.458Z,7.20
2023-04-15T06:20:05.161Z,11.00
2023-04-15T06:22:32.126Z,1.00
2023-04-15T06:24:59.126Z,1.00
2023-04-15T06:27:26.256Z,1.00
2023-04-15T06:29:53.219Z,1.00
2023-04-15T06:32:20.126Z,1.00
2023-04-15T06:34:47.259Z,1.00
2023-04-15T06:37:16.417Z,1.00
2023-04-15T06:39:44.770Z,1.00
2023-04-15T06:42:12.198Z,1.00
2023-04-15T06:44:39.181Z,1.00
2023-04-15T06:47:06.101Z,1.00
2023-04-15T06:49:33.815Z,1.00
2023-04-15T06:52:01.095Z,1.00
2023-04-15T06:54:28.138Z,1.00
2023-04-15T06:56:55.221Z,1.00
2023-04-15T06:59:22.174Z,1.00
2023-04-15T07:01:49.100Z,1.00
2023-04-15T07:04:16.427Z,1.00
2023-04-15T07:06:43.359Z,1.00
2023-04-15T07:09:10.792Z,1.00
2023-04-15T07:11:37.640Z,1.00
2023-04-15T07:14:04.835Z,1.00
2023-04-15T07:16:31.998Z,1.00
2023-04-15T07:18:59.029Z,1.00
2023-04-15T07:21:27.796Z,1.00
2023-04-15T07:23:55.045Z,1.00
2023-04-15T07:26:21.933Z,1.00
2023-04-15T07:28:49.565Z,1.00
2023-04-15T07:31:17.540Z,1.00
2023-04-15T07:33:44.526Z,1.00
2023-04-15T07:36:15.264Z,1.00
2023-04-15T07:38:45.026Z,1.00
2023-04-15T07:41:12.015Z,1.00
2023-04-15T07:43:39.162Z,1.00
2023-04-15T07:46:06.115Z,1.00
2023-04-15T07:48:33.732Z,1.00
2023-04-15T07:51:02.361Z,1.00
2023-04-15T07:53:29.348Z,1.00
2023-04-15T07:55:56.222Z,1.00
2023-04-15T07:58:23.158Z,1.00
2023-04-15T08:00:50.443Z,1.00
2023-04-15T08:03:17.534Z,1.00
2023-04-15T08:05:44.777Z,1.00
2023-04-15T08:08:11.673Z,1.00
2023-04-15T08:10:38.602Z,1.00
2023-04-15T08:13:06.048Z,1.00
2023-04-15T08:15:33.271Z,1.00
2023-04-15T08:18:03.221Z,1.00
2023-04-15T08:20:30.196Z,1.00
2023-04-15T08:22:57.242Z,1.00
2023-04-15T08:25:24.255Z,1.00
2023-04-15T08:27:51.753Z,1.00
2023-04-15T08:30:19.557Z,1.00
2023-04-15T08:32:49.764Z,1.00
2023-04-15T08:35:16.823Z,1.00
2023-04-15T08:37:43.721Z,1.00
2023-04-15T08:40:11.629Z,1.00
2023-04-15T08:42:49.117Z,1.00
2023-04-15T08:45:17.402Z,1.00
2023-04-15T08:47:47.541Z,1.00
2023-04-15T08:50:16.479Z,1.00
2023-04-15T08:52:43.881Z,1.00
2023-04-15T08:55:13.960Z,1.00
2023-04-15T08:57:40.946Z,1.00
2023-04-15T09:00:09.483Z,1.00
2023-04-15T09:02:36.914Z,1.00
2023-04-15T09:05:06.514Z,1.00
2023-04-15T09:07:36.826Z,1.00
2023-04-15T09:10:04.796Z,1.00
2023-04-15T09:12:34.107Z,1.00
2023-04-15T09:15:01.554Z,1.00
2023-04-15T09:17:28.682Z,1.00
2023-04-15T09:20:13.711Z,1.00
2023-04-15T09:22:45.807Z,1.00
2023-04-15T09:25:15.742Z,1.00
2023-04-15T09:27:53.784Z,1.00
2023-04-15T09:30:22.556Z,1.00
2023-04-15T09:32:57.494Z,1.00
2023-04-15T09:35:25.749Z,1.00
2023-04-15T09:37:54.019Z,1.00
2023-04-15T09:40:39.283Z,1.00
2023-04-15T09:43:07.706Z,1.00
2023-04-15T09:45:35.924Z,1.00
2023-04-15T09:48:23.567Z,1.00
2023-04-15T09:50:51.338Z,1.00
2023-04-15T09:53:24.361Z,1.00
2023-04-15T09:56:00.864Z,1.00
2023-04-15T09:58:30.744Z,1.00
2023-04-15T10:00:58.803Z,1.00
2023-04-15T10:03:28.740Z,1.00
2023-04-15T10:05:57.651Z,1.00
2023-04-15T10:08:28.143Z,1.00
2023-04-15T10:10:56.321Z,1.00
2023-04-15T10:13:26.386Z,1.00
2023-04-15T10:15:58.392Z,1.00
2023-04-15T10:18:29.631Z,1.00
2023-04-15T10:20:56.684Z,1.00
2023-04-15T10:23:25.922Z,1.00
2023-04-15T10:25:56.646Z,1.00
2023-04-15T10:28:23.545Z,1.00
2023-04-15T10:30:52.141Z,1.00
2023-04-15T10:33:22.679Z,1.00
2023-04-15T10:35:51.805Z,1.00
2023-04-15T10:38:45.854Z,1.00
2023-04-15T10:41:35.266Z,1.00
2023-04-15T10:44:05.469Z,1.00
2023-04-15T10:46:39.534Z,1.00
2023-04-15T10:49:20.961Z,1.00
2023-04-15T10:51:53.103Z,1.00
2023-04-15T10:54:26.011Z,1.00
2023-04-15T10:57:23.094Z,1.00
2023-04-15T11:00:03.394Z,1.00
2023-04-15T11:02:42.928Z,1.00
2023-04-15T11:05:11.606Z,1.00
2023-04-15T11:07:51.785Z,1.00
2023-04-15T11:10:18.739Z,1.00
2023-04-15T11:12:46.630Z,99.90
2023-04-15T11:15:34.700Z,99.90
2023-04-15T11:18:12.306Z,99.90
2023-04-15T11:20:41.684Z,99.90
2023-04-15T11:23:15.029Z,99.90
2023-04-15T11:25:43.916Z,99.90
2023-04-15T11:28:12.549Z,99.90
2023-04-15T11:30:40.890Z,99.90
2023-04-15T11:33:09.849Z,99.90
2023-04-15T11:35:36.923Z,99.90
2023-04-15T11:38:05.505Z,99.90
2023-04-15T11:40:33.583Z,99.90
2023-04-15T11:43:10.383Z,99.90
2023-04-15T11:45:48.364Z,99.90
2023-04-15T11:48:15.643Z,99.90
2023-04-15T11:50:42.573Z,99.90
2023-04-15T11:53:11.947Z,99.90
2023-04-15T11:55:50.610Z,99.90
2023-04-15T11:58:21.972Z,99.90
2023-04-15T12:00:57.830Z,99.90
2023-04-15T12:03:30.092Z,99.90
2023-04-15T12:06:24.763Z,99.90
2023-04-15T12:09:06.923Z,99.90
2023-04-15T12:11:45.440Z,99.90
2023-04-15T12:14:26.214Z,99.90
2023-04-15T12:16:58.696Z,99.90
2023-04-15T12:19:37.336Z,99.90
2023-04-15T12:22:10.440Z,99.90
2023-04-15T12:24:38.794Z,99.90
2023-04-15T12:27:07.873Z,99.90
2023-04-15T12:29:39.742Z,99.90
2023-04-15T12:32:19.799Z,99.90
2023-04-15T12:34:54.540Z,99.90
2023-04-15T12:37:21.671Z,99.90
2023-04-15T12:39:50.074Z,99.90
2023-04-15T12:42:18.068Z,99.90
2023-04-15T12:44:45.266Z,99.90
2023-04-15T12:47:13.239Z,99.90
2023-04-15T12:49:41.238Z,99.90
2023-04-15T12:52:08.402Z,99.90
2023-04-15T12:54:36.172Z,99.90
2023-04-15T12:57:06.948Z,99.90
2023-04-15T12:59:34.961Z,99.90
2023-04-15T13:02:03.031Z,99.90
2023-04-15T13:04:33.145Z,99.90
2023-04-15T13:07:00.250Z,99.90
2023-04-15T13:09:27.203Z,99.90
2023-04-15T13:11:54.684Z,99.90
2023-04-15T13:14:21.760Z,99.90
2023-04-15T13:16:48.784Z,99.90
2023-04-15T13:19:15.928Z,99.90
2023-04-15T13:21:42.955Z,99.90
2023-04-15T13:24:09.963Z,99.90
2023-04-15T13:26:37.917Z,99.90
2023-04-15T13:29:05.724Z,99.90
2023-04-15T13:31:32.755Z,99.90
2023-04-15T13:33:59.799Z,99.90
2023-04-15T13:36:27.524Z,99.90
2023-04-15T13:38:54.725Z,99.90
2023-04-15T13:41:21.973Z,99.90
2023-04-15T13:43:48.921Z,99.90
2023-04-15T13:46:16.167Z,99.90
2023-04-15T13:48:43.180Z,99.90
2023-04-15T13:51:10.060Z,99.90
2023-04-15T13:53:38.922Z,99.90
2023-04-15T13:56:09.905Z,99.90
2023-04-15T13:58:37.978Z,99.90
2023-04-15T14:01:07.008Z,99.90
2023-04-15T14:03:36.184Z,99.90
2023-04-15T14:06:03.655Z,99.90
2023-04-15T14:08:31.132Z,99.90
2023-04-15T14:10:58.143Z,99.90
2023-04-15T14:13:25.319Z,99.90
2023-04-15T14:15:52.253Z,99.90
2023-04-15T14:18:19.141Z,99.90
2023-04-15T14:20:46.119Z,99.90
2023-04-15T14:23:13.089Z,99.90
2023-04-15T14:25:40.109Z,99.90
2023-04-15T14:28:09.528Z,99.90
2023-04-15T14:30:36.677Z,99.90
2023-04-15T14:33:04.250Z,99.90
2023-04-15T14:35:31.616Z,99.90
2023-04-15T14:37:58.653Z,99.90
2023-04-15T14:40:25.824Z,99.90
2023-04-15T14:42:52.754Z,99.90
2023-04-15T14:45:19.662Z,99.90
2023-04-15T14:47:47.333Z,99.90
2023-04-15T14:50:14.306Z,99.90
2023-04-15T14:52:41.307Z,99.90
2023-04-15T14:55:12.498Z,99.90
2023-04-15T14:57:41.199Z,99.90
2023-04-15T15:00:10.702Z,99.90
2023-04-15T15:02:40.243Z,99.90
2023-04-15T15:05:09.061Z,99.90
2023-04-15T15:07:39.538Z,99.90
2023-04-15T15:10:07.458Z,99.90
2023-04-15T15:12:34.491Z,99.90
2023-04-15T15:15:04.974Z,99.90
2023-04-15T15:17:36.505Z,99.90
2023-04-15T15:20:04.185Z,99.90
2023-04-15T15:22:31.057Z,99.90
2023-04-15T15:24:59.332Z,99.90
2023-04-15T15:27:26.219Z,99.90
2023-04-15T15:29:53.196Z,99.90
2023-04-15T15:32:20.175Z,99.90
2023-04-15T15:34:47.106Z,99.90
2023-04-15T15:37:14.024Z,99.90
2023-04-15T15:39:41.316Z,99.90
2023-04-15T15:42:08.231Z,99.90
2023-04-15T15:44:36.364Z,99.90
2023-04-15T15:47:03.575Z,99.90
2023-04-15T15:49:30.704Z,99.90
2023-04-15T15:51:57.715Z,99.90
2023-04-15T15:54:24.962Z,99.90
2023-04-15T15:56:53.262Z,99.90
2023-04-15T15:59:20.126Z,99.90
2023-04-15T16:01:48.300Z,99.90
2023-04-15T16:04:15.357Z,99.90
2023-04-15T16:06:44.636Z,99.90
2023-04-15T16:09:11.511Z,99.90
2023-04-15T16:11:38.656Z,99.90
2023-04-15T16:14:05.658Z,99.90
2023-04-15T16:16:32.633Z,99.90
2023-04-15T16:18:59.698Z,99.90
2023-04-15T16:21:27.414Z,99.90
2023-04-15T16:23:54.419Z,99.90
2023-04-15T16:26:21.853Z,99.90
2023-04-15T16:28:48.863Z,99.90
2023-04-15T16:31:15.897Z,99.90
2023-04-15T16:33:42.822Z,99.90
2023-04-15T16:36:09.740Z,99.90
2023-04-15T16:38:36.644Z,99.90
2023-04-15T16:41:03.639Z,99.90
2023-04-15T16:43:30.545Z,99.90
2023-04-15T16:45:57.411Z,99.90
2023-04-15T16:48:24.358Z,99.90
2023-04-15T16:50:51.225Z,99.90
2023-04-15T16:53:18.506Z,99.90
2023-04-15T16:55:45.989Z,99.90
2023-04-15T16:58:12.865Z,99.90
2023-04-15T17:00:39.886Z,99.90
2023-04-15T17:03:06.948Z,99.90
2023-04-15T17:05:34.133Z,99.90
2023-04-15T17:08:01.118Z,99.90
2023-04-15T17:10:28.492Z,99.90
2023-04-15T17:12:59.261Z,99.90
2023-04-15T17:15:26.628Z,99.90
2023-04-15T17:17:53.924Z,99.90
2023-04-15T17:20:20.999Z,99.90
2023-04-15T17:22:48.968Z,99.90
2023-04-15T17:25:16.025Z,99.90
2023-04-15T17:27:46.209Z,99.90
2023-04-15T17:30:13.158Z,99.90
2023-04-15T17:32:40.364Z,99.90
2023-04-15T17:35:08.207Z,99.90
2023-04-15T17:37:35.374Z,99.90
2023-04-15T17:40:03.079Z,99.90
2023-04-15T17:42:29.972Z,99.90
2023-04-15T17:44:56.888Z,99.90
2023-04-15T17:47:23.872Z,99.90
2023-04-15T17:49:50.866Z,99.90
2023-04-15T17:52:17.725Z,99.90
2023-04-15T17:54:46.202Z,99.90
2023-04-15T17:57:13.121Z,99.90
2023-04-15T17:59:44.074Z,99.90
2023-04-15T18:02:11.696Z,99.90
2023-04-15T18:04:39.290Z,99.90
2023-04-15T18:07:06.724Z,99.90
2023-04-15T18:09:33.654Z,99.90
2023-04-15T18:12:01.744Z,99.90
2023-04-15T18:14:34.768Z,99.90
2023-04-15T18:17:05.191Z,99.90
2023-04-15T18:19:32.314Z,99.90
2023-04-15T18:22:03.306Z,99.90
2023-04-15T18:24:30.440Z,99.90
2023-04-15T18:26:57.528Z,99.90
2023-04-15T18:29:25.614Z,99.90
2023-04-15T18:31:52.826Z,99.90
2023-04-15T18:34:19.806Z,99.90
2023-04-15T18:36:46.819Z,99.90
2023-04-15T18:39:14.166Z,99.90
2023-04-15T18:41:41.103Z,99.90
2023-04-15T18:44:08.341Z,99.90
2023-04-15T18:46:35.491Z,99.90
2023-04-15T18:49:02.541Z,99.90
2023-04-15T18:51:29.731Z,99.90
